Time;durP1;ratioP1;P1;durP2;ratioP2;P2;SDS_P1;SDS_P2;PMS_P1;PMS_P2;Temp;Humidity;BMP_temperature;BMP_pressure;BME280_temperature;BME280_humidity;BME280_pressure;Samples;Min_cycle;Max_cycle;Signal;HPM_P1;HPM_P2
2020/12/20 00:00:43;;;;;;;9.10;5.20;;;9.90;93.80;;;;;;5056574;28;20035;-87
2020/12/20 00:03:09;;;;;;;8.27;4.68;;;10.00;93.80;;;;;;5053865;28;20028;-88
2020/12/20 00:05:35;;;;;;;9.93;5.20;;;9.90;93.80;;;;;;5051978;28;20040;-88
2020/12/20 00:08:00;;;;;;;9.85;5.13;;;10.00;93.80;;;;;;5056998;28;20354;-87
2020/12/20 00:10:26;;;;;;;9.90;4.80;;;10.00;93.70;;;;;;5056037;28;20031;-87
2020/12/20 00:12:52;;;;;;;7.97;4.65;;;9.90;93.70;;;;;;5055625;28;20430;-87
2020/12/20 00:15:19;;;;;;;9.82;5.05;;;10.00;93.70;;;;;;5073670;28;20031;-87
2020/12/20 00:18:05;;;;;;;10.48;4.82;;;10.00;93.60;;;;;;5055500;28;20074;-87
2020/12/20 00:20:31;;;;;;;10.50;5.00;;;10.00;93.50;;;;;;5042286;28;20140;-88
2020/12/20 00:22:59;;;;;;;9.43;4.57;;;10.00;93.50;;;;;;5040313;28;20066;-88
2020/12/20 00:25:25;;;;;;;7.15;4.38;;;10.00;93.60;;;;;;5053796;28;20049;-88
2020/12/20 00:27:56;;;;;;;12.85;5.07;;;10.00;93.70;;;;;;5022706;28;20029;-87
2020/12/20 00:30:21;;;;;;;8.82;4.50;;;10.00;93.60;;;;;;5052873;28;20017;-88
2020/12/20 00:32:50;;;;;;;8.57;3.97;;;10.00;93.70;;;;;;5045021;28;20167;-87
2020/12/20 00:35:16;;;;;;;9.45;4.35;;;10.00;93.70;;;;;;5055786;28;20032;-87
2020/12/20 00:37:47;;;;;;;10.88;4.68;;;10.00;93.70;;;;;;5043939;28;20413;-88
2020/12/20 00:40:13;;;;;;;9.32;4.38;;;10.00;93.70;;;;;;5056117;28;20033;-88
2020/12/20 00:42:44;;;;;;;10.05;3.95;;;10.00;93.60;;;;;;5054979;28;20747;-87
2020/12/20 00:45:10;;;;;;;9.93;4.13;;;10.10;93.60;;;;;;5028109;28;20040;-88
2020/12/20 00:47:35;;;;;;;8.20;4.10;;;10.10;93.60;;;;;;5032763;28;20041;-87
2020/12/20 00:50:01;;;;;;;12.15;4.63;;;10.10;93.60;;;;;;5040405;28;20439;-87
2020/12/20 00:52:36;;;;;;;8.02;4.10;;;10.10;93.60;;;;;;5041359;28;20017;-87
2020/12/20 00:55:02;;;;;;;9.13;3.97;;;10.10;93.60;;;;;;5027979;28;20064;-87
2020/12/20 00:57:33;;;;;;;10.80;4.30;;;10.10;93.50;;;;;;5036344;28;20051;-88
2020/12/20 01:00:02;;;;;;;10.88;4.43;;;10.10;93.50;;;;;;5044700;28;20464;-87
2020/12/20 01:02:28;;;;;;;8.85;3.88;;;10.10;93.50;;;;;;5035743;28;20052;-87
2020/12/20 01:04:54;;;;;;;9.60;4.45;;;10.10;93.40;;;;;;5038275;28;20053;-87
2020/12/20 01:07:20;;;;;;;14.80;4.57;;;10.10;93.40;;;;;;5038522;28;20033;-88
2020/12/20 01:09:46;;;;;;;9.77;5.80;;;10.10;93.40;;;;;;5040548;28;21504;-87
2020/12/20 01:12:12;;;;;;;12.60;4.80;;;10.00;93.40;;;;;;5049508;28;20059;-87
2020/12/20 01:14:38;;;;;;;10.77;4.30;;;10.00;93.40;;;;;;5034188;28;20025;-87
2020/12/20 01:17:07;;;;;;;7.78;4.55;;;10.10;93.40;;;;;;5020810;28;20488;-87
2020/12/20 01:19:32;;;;;;;11.27;4.22;;;10.10;93.30;;;;;;5041444;28;20028;-87
2020/12/20 01:21:59;;;;;;;8.95;4.13;;;10.10;93.20;;;;;;5054753;28;20025;-87
2020/12/20 01:24:25;;;;;;;12.73;4.40;;;10.10;93.20;;;;;;5054368;28;20031;-87
2020/12/20 01:26:51;;;;;;;10.40;4.75;;;10.10;93.10;;;;;;5056037;28;20027;-87
2020/12/20 01:29:19;;;;;;;10.25;4.80;;;10.10;93.10;;;;;;5022783;28;20404;-87
2020/12/20 01:31:49;;;;;;;11.77;3.90;;;10.00;93.10;;;;;;5057446;28;20054;-87
2020/12/20 01:34:17;;;;;;;12.07;4.82;;;10.00;93.20;;;;;;5057623;28;20034;-88
2020/12/20 01:36:43;;;;;;;9.88;3.95;;;10.00;93.30;;;;;;5057814;28;20078;-87
2020/12/20 01:39:11;;;;;;;11.77;4.00;;;10.00;93.40;;;;;;5057098;28;20032;-88
2020/12/20 01:41:50;;;;;;;12.88;4.10;;;9.90;93.40;;;;;;5058178;28;20016;-86
2020/12/20 01:44:15;;;;;;;13.25;4.30;;;9.90;93.50;;;;;;5057066;28;20028;-88
2020/12/20 01:46:50;;;;;;;11.23;4.60;;;9.90;93.50;;;;;;5057627;28;20031;-87
2020/12/20 01:49:16;;;;;;;10.20;4.38;;;9.90;93.50;;;;;;5057376;28;20016;-88
2020/12/20 01:51:41;;;;;;;7.32;4.38;;;9.90;93.60;;;;;;5074795;28;20106;-86
2020/12/20 01:54:12;;;;;;;11.18;4.10;;;9.90;93.60;;;;;;5056106;28;20033;-87
2020/12/20 01:56:42;;;;;;;10.32;3.95;;;9.90;93.70;;;;;;5057268;28;20028;-87
2020/12/20 01:59:11;;;;;;;11.45;4.03;;;9.90;93.70;;;;;;5056118;28;20119;-87
2020/12/20 02:01:37;;;;;;;9.95;3.95;;;9.90;93.70;;;;;;5055914;28;20162;-87
2020/12/20 02:04:04;;;;;;;9.80;3.70;;;9.80;93.70;;;;;;5039565;28;20131;-87
2020/12/20 02:06:32;;;;;;;9.57;3.70;;;9.90;93.70;;;;;;5056737;28;20050;-90
2020/12/20 02:09:01;;;;;;;7.72;3.50;;;9.90;93.70;;;;;;5056338;28;20023;-87
2020/12/20 02:11:34;;;;;;;7.57;3.65;;;9.90;93.60;;;;;;5056933;28;20020;-87
2020/12/20 02:13:59;;;;;;;7.85;3.85;;;9.90;93.50;;;;;;5039643;28;20035;-88
2020/12/20 02:16:25;;;;;;;9.95;3.78;;;9.90;93.50;;;;;;5055916;28;20439;-88
2020/12/20 02:18:51;;;;;;;8.77;4.20;;;9.90;93.50;;;;;;5056230;28;20017;-87
2020/12/20 02:21:18;;;;;;;9.23;4.00;;;9.90;93.50;;;;;;5040660;28;20423;-87
2020/12/20 02:23:47;;;;;;;12.35;4.63;;;9.90;93.50;;;;;;5056339;28;20032;-88
2020/12/20 02:26:14;;;;;;;9.00;4.10;;;9.90;93.50;;;;;;5074136;28;20135;-87
2020/12/20 02:28:40;;;;;;;12.52;5.00;;;9.90;93.50;;;;;;5056239;28;20116;-87
2020/12/20 02:31:07;;;;;;;11.43;5.13;;;9.90;93.50;;;;;;5056596;28;20036;-87
2020/12/20 02:33:33;;;;;;;10.23;4.47;;;9.90;93.50;;;;;;5039478;28;20028;-87
2020/12/20 02:36:02;;;;;;;9.00;4.30;;;9.90;93.40;;;;;;5041469;28;20055;-87
2020/12/20 02:38:29;;;;;;;10.70;4.38;;;9.90;93.40;;;;;;5056859;28;20029;-87
2020/12/20 02:40:56;;;;;;;11.00;4.45;;;9.90;93.50;;;;;;5057522;28;20028;-87
2020/12/20 02:43:21;;;;;;;9.00;3.75;;;9.90;93.50;;;;;;5057638;28;20029;-87
2020/12/20 02:45:47;;;;;;;9.20;4.40;;;9.90;93.40;;;;;;5056155;28;20031;-87
2020/12/20 02:48:13;;;;;;;11.05;4.43;;;9.90;93.40;;;;;;5022969;28;20028;-87
2020/12/20 02:50:39;;;;;;;11.43;5.03;;;9.90;93.40;;;;;;5055976;28;20021;-87
2020/12/20 02:53:04;;;;;;;13.18;5.15;;;9.90;93.40;;;;;;5039104;28;20109;-87
2020/12/20 02:55:30;;;;;;;9.10;4.43;;;9.80;93.40;;;;;;5036351;28;20111;-87
2020/12/20 02:57:56;;;;;;;10.88;4.30;;;9.80;93.40;;;;;;5052240;28;20016;-87
2020/12/20 03:00:22;;;;;;;11.93;4.70;;;9.80;93.40;;;;;;5056172;28;20029;-87
2020/12/20 03:02:50;;;;;;;7.13;3.88;;;9.80;93.40;;;;;;5039498;28;20052;-87
2020/12/20 03:05:17;;;;;;;8.20;4.43;;;9.70;93.50;;;;;;5055671;28;20033;-87
2020/12/20 03:07:44;;;;;;;11.43;4.03;;;9.80;93.60;;;;;;5056132;28;20396;-87
2020/12/20 03:10:10;;;;;;;6.93;3.42;;;9.80;93.70;;;;;;5055713;28;20024;-88
2020/12/20 03:12:36;;;;;;;11.85;4.20;;;9.70;93.70;;;;;;5056522;28;20455;-87
2020/12/20 03:15:03;;;;;;;9.35;3.65;;;9.80;93.70;;;;;;5055391;28;20111;-86
2020/12/20 03:17:30;;;;;;;8.88;3.70;;;9.80;93.70;;;;;;5022699;28;20024;-87
2020/12/20 03:19:55;;;;;;;10.02;4.43;;;9.80;93.70;;;;;;5035622;28;20028;-87
2020/12/20 03:22:21;;;;;;;11.27;4.30;;;9.80;93.70;;;;;;5053575;28;20025;-88
2020/12/20 03:24:47;;;;;;;8.27;3.75;;;9.70;93.70;;;;;;5055293;28;20052;-88
2020/12/20 03:27:12;;;;;;;10.75;3.67;;;9.80;93.70;;;;;;5044312;28;20033;-87
2020/12/20 03:29:38;;;;;;;8.27;3.67;;;9.70;93.70;;;;;;5032895;28;20029;-87
2020/12/20 03:32:04;;;;;;;8.52;3.90;;;9.70;93.80;;;;;;5031928;28;20033;-87
2020/12/20 03:34:29;;;;;;;9.88;3.97;;;9.80;93.80;;;;;;5039044;28;20388;-86
2020/12/20 03:36:55;;;;;;;8.55;3.97;;;9.80;93.80;;;;;;5039414;28;20166;-87
2020/12/20 03:39:21;;;;;;;10.25;4.07;;;9.80;93.70;;;;;;5055509;28;20020;-87
2020/12/20 03:41:50;;;;;;;10.55;4.10;;;9.80;93.80;;;;;;5074372;28;20048;-87
2020/12/20 03:44:15;;;;;;;8.27;3.83;;;9.80;93.80;;;;;;5074108;28;20087;-87
2020/12/20 03:46:41;;;;;;;8.73;3.53;;;9.80;93.80;;;;;;5052934;28;20417;-86
2020/12/20 03:49:07;;;;;;;10.85;4.28;;;9.80;93.80;;;;;;5018835;28;20040;-88
2020/12/20 03:51:35;;;;;;;8.80;3.90;;;9.70;93.90;;;;;;5037968;28;20365;-86
2020/12/20 03:54:03;;;;;;;9.80;3.85;;;9.80;93.90;;;;;;5035615;28;20033;-86
2020/12/20 03:56:29;;;;;;;9.13;3.50;;;9.80;93.90;;;;;;5052607;28;20039;-86
2020/12/20 03:58:55;;;;;;;8.18;3.75;;;9.70;93.90;;;;;;5057304;28;20047;-85
2020/12/20 04:01:21;;;;;;;9.65;3.67;;;9.80;93.90;;;;;;5072123;28;20029;-83
2020/12/20 04:03:46;;;;;;;12.02;3.63;;;9.80;93.90;;;;;;5056499;28;20556;-87
2020/12/20 04:06:12;;;;;;;10.82;4.35;;;9.80;93.80;;;;;;5061173;28;20025;-86
2020/12/20 04:08:38;;;;;;;12.02;3.83;;;9.80;93.80;;;;;;5031511;28;20024;-86
2020/12/20 04:11:04;;;;;;;10.90;3.47;;;9.80;93.70;;;;;;5028272;28;20056;-86
2020/12/20 04:13:32;;;;;;;10.10;4.15;;;9.80;93.70;;;;;;5059908;28;20032;-86
2020/12/20 04:16:08;;;;;;;11.80;3.30;;;9.90;93.70;;;;;;5044481;28;20112;-86
2020/12/20 04:18:35;;;;;;;11.93;3.83;;;9.80;93.70;;;;;;5054858;28;20054;-87
2020/12/20 04:21:01;;;;;;;13.65;3.70;;;9.80;93.70;;;;;;5059337;28;20040;-87
2020/12/20 04:23:26;;;;;;;6.13;3.13;;;9.80;93.60;;;;;;5042783;28;20028;-87
2020/12/20 04:25:52;;;;;;;9.38;3.83;;;9.90;93.70;;;;;;5054940;28;20403;-86
2020/12/20 04:28:18;;;;;;;14.05;3.97;;;9.90;93.60;;;;;;5039374;28;20385;-86
2020/12/20 04:30:43;;;;;;;14.10;3.63;;;9.90;93.50;;;;;;5042804;28;20079;-90
2020/12/20 04:33:12;;;;;;;12.88;3.40;;;9.80;93.50;;;;;;5038537;28;20488;-87
2020/12/20 04:35:38;;;;;;;10.38;3.83;;;9.90;93.60;;;;;;5024501;28;20052;-87
2020/12/20 04:38:03;;;;;;;11.98;3.50;;;9.80;93.70;;;;;;5055427;28;20025;-87
2020/12/20 04:40:29;;;;;;;12.73;4.07;;;9.90;93.60;;;;;;5022175;28;20436;-87
2020/12/20 04:43:01;;;;;;;10.93;4.25;;;9.90;93.60;;;;;;5039898;28;20047;-87
2020/12/20 04:45:27;;;;;;;10.15;3.22;;;9.90;93.80;;;;;;5060231;28;20090;-87
2020/12/20 04:48:00;;;;;;;8.70;3.22;;;9.90;93.50;;;;;;5061042;28;20021;-87
2020/12/20 04:50:26;;;;;;;8.57;3.10;;;9.90;93.50;;;;;;5039324;28;20040;-87
2020/12/20 04:52:54;;;;;;;7.95;3.50;;;9.90;93.50;;;;;;5058443;28;20044;-87
2020/12/20 04:55:25;;;;;;;10.30;3.42;;;9.90;93.40;;;;;;5057914;28;20093;-87
2020/12/20 04:57:52;;;;;;;10.27;3.55;;;9.90;93.40;;;;;;5055320;28;20029;-87
2020/12/20 05:00:18;;;;;;;12.48;3.80;;;9.90;93.50;;;;;;5037644;28;20025;-87
2020/12/20 05:02:44;;;;;;;10.35;3.30;;;9.90;93.50;;;;;;5037706;28;20029;-86
2020/12/20 05:05:10;;;;;;;10.60;3.47;;;9.90;93.50;;;;;;5053536;28;20029;-86
2020/12/20 05:07:36;;;;;;;9.15;3.13;;;9.80;93.60;;;;;;5053903;28;20017;-86
2020/12/20 05:10:07;;;;;;;6.63;3.20;;;9.80;93.60;;;;;;5053078;28;20047;-87
2020/12/20 05:12:34;;;;;;;9.60;3.40;;;9.80;93.60;;;;;;5054145;28;20025;-87
2020/12/20 05:15:16;;;;;;;9.32;3.50;;;9.90;93.60;;;;;;5053533;28;20036;-87
2020/12/20 05:17:45;;;;;;;13.38;3.50;;;9.90;93.50;;;;;;5053866;28;20074;-86
2020/12/20 05:20:13;;;;;;;14.38;3.47;;;9.90;93.50;;;;;;5036977;28;20021;-86
2020/12/20 05:22:40;;;;;;;10.90;3.03;;;9.90;93.40;;;;;;5053785;28;20079;-87
2020/12/20 05:25:17;;;;;;;11.70;4.45;;;9.90;93.30;;;;;;5054018;28;20485;-87
2020/12/20 05:27:45;;;;;;;11.90;3.72;;;10.00;93.40;;;;;;5054497;28;20485;-86
2020/12/20 05:30:16;;;;;;;9.93;3.22;;;9.90;93.20;;;;;;5038349;28;20533;-87
2020/12/20 05:32:43;;;;;;;10.63;3.30;;;9.90;93.30;;;;;;5054069;28;20016;-87
2020/12/20 05:35:16;;;;;;;9.48;3.25;;;9.90;93.30;;;;;;5036799;28;20123;-87
2020/12/20 05:37:43;;;;;;;23.27;4.85;;;9.90;93.30;;;;;;5053999;28;20488;-88
2020/12/20 05:40:35;;;;;;;9.75;3.42;;;9.80;93.30;;;;;;5053945;28;20116;-88
2020/12/20 05:43:05;;;;;;;11.35;3.40;;;9.80;93.50;;;;;;5054451;28;20082;-87
2020/12/20 05:45:36;;;;;;;8.88;3.30;;;9.80;93.40;;;;;;5054119;28;20021;-87
2020/12/20 05:48:22;;;;;;;7.25;3.20;;;9.80;93.40;;;;;;5040735;28;20099;-87
2020/12/20 05:50:54;;;;;;;16.25;3.20;;;9.80;93.40;;;;;;5054075;28;20017;-88
2020/12/20 05:53:27;;;;;;;12.48;3.53;;;9.80;93.50;;;;;;5053989;28;20477;-87
2020/12/20 05:55:57;;;;;;;9.07;3.38;;;9.80;93.40;;;;;;5054033;28;20029;-87
2020/12/20 05:58:26;;;;;;;8.10;3.22;;;9.80;93.30;;;;;;5036986;28;20032;-87
2020/12/20 06:00:54;;;;;;;9.38;3.00;;;9.80;93.30;;;;;;5024050;28;20037;-87
2020/12/20 06:03:21;;;;;;;9.45;2.97;;;9.90;93.20;;;;;;5023795;28;20396;-87
2020/12/20 06:05:50;;;;;;;12.40;3.28;;;9.80;93.30;;;;;;5053636;28;20531;-87
2020/12/20 06:08:17;;;;;;;10.30;3.45;;;9.90;93.20;;;;;;5036857;28;20040;-87
2020/12/20 06:10:49;;;;;;;10.05;3.00;;;9.90;93.10;;;;;;5035989;28;20033;-87
2020/12/20 06:13:19;;;;;;;11.82;3.83;;;9.90;93.10;;;;;;5052601;28;20110;-87
2020/12/20 06:15:53;;;;;;;11.13;3.33;;;9.90;93.10;;;;;;5020101;28;20083;-87
2020/12/20 06:18:31;;;;;;;13.05;3.08;;;9.90;93.20;;;;;;5046531;28;20378;-87
2020/12/20 06:21:01;;;;;;;14.98;3.30;;;9.80;93.20;;;;;;5041037;28;20086;-87
2020/12/20 06:23:34;;;;;;;8.48;2.90;;;9.80;93.20;;;;;;5054610;28;20025;-87
2020/12/20 06:26:01;;;;;;;10.10;3.13;;;9.80;93.20;;;;;;5055029;28;20052;-87
2020/12/20 06:28:32;;;;;;;13.10;3.22;;;9.80;93.20;;;;;;5039772;28;20029;-87
2020/12/20 06:30:58;;;;;;;8.63;3.25;;;9.80;93.20;;;;;;5056987;28;20067;-87
2020/12/20 06:33:27;;;;;;;12.52;3.50;;;9.80;93.30;;;;;;5039963;28;20021;-87
2020/12/20 06:35:56;;;;;;;8.02;3.03;;;9.80;93.30;;;;;;5056147;28;20048;-87
2020/12/20 06:38:23;;;;;;;16.55;3.08;;;9.80;93.30;;;;;;5058791;28;20540;-87
2020/12/20 06:40:50;;;;;;;7.63;3.03;;;9.80;93.30;;;;;;5058323;28;20071;-87
2020/12/20 06:43:28;;;;;;;12.93;3.65;;;9.80;93.60;;;;;;5030876;28;20017;-86
2020/12/20 06:46:01;;;;;;;11.32;3.33;;;9.70;93.40;;;;;;5053362;28;20121;-87
2020/12/20 06:48:41;;;;;;;9.35;3.65;;;9.70;93.40;;;;;;5046960;28;20028;-87
2020/12/20 06:51:08;;;;;;;8.27;3.47;;;9.70;93.40;;;;;;5037525;28;20031;-87
2020/12/20 06:53:47;;;;;;;16.88;4.80;;;9.70;93.50;;;;;;5039680;28;20036;-87
2020/12/20 06:56:15;;;;;;;12.27;4.55;;;9.60;93.50;;;;;;5055733;28;20035;-87
2020/12/20 06:58:40;;;;;;;13.23;3.45;;;9.60;93.60;;;;;;5055922;28;20017;-87
2020/12/20 07:01:06;;;;;;;12.00;3.58;;;9.60;93.70;;;;;;5039066;28;20145;-86
2020/12/20 07:03:40;;;;;;;8.93;3.15;;;9.60;93.70;;;;;;5045870;28;20085;-87
2020/12/20 07:06:12;;;;;;;10.77;3.45;;;9.60;93.70;;;;;;5056802;28;20149;-87
2020/12/20 07:08:38;;;;;;;11.20;3.90;;;9.60;93.60;;;;;;5073654;28;20028;-87
2020/12/20 07:11:08;;;;;;;10.82;2.90;;;9.60;93.70;;;;;;5056465;28;20076;-87
2020/12/20 07:13:44;;;;;;;15.25;3.88;;;9.60;93.60;;;;;;5055028;28;20024;-86
2020/12/20 07:16:12;;;;;;;12.40;3.08;;;9.70;93.50;;;;;;5055333;28;20043;-86
2020/12/20 07:18:42;;;;;;;9.80;3.58;;;9.60;93.60;;;;;;5055290;28;20027;-87
2020/12/20 07:21:20;;;;;;;12.40;3.05;;;9.60;93.50;;;;;;5055231;28;20102;-87
2020/12/20 07:23:47;;;;;;;12.77;3.35;;;9.60;93.50;;;;;;5072196;28;20028;-86
2020/12/20 07:26:14;;;;;;;13.77;3.70;;;9.60;93.60;;;;;;5038071;28;20104;-86
2020/12/20 07:28:40;;;;;;;8.35;3.72;;;9.50;93.70;;;;;;5046810;28;20021;-87
2020/12/20 07:31:13;;;;;;;13.85;3.83;;;9.60;93.80;;;;;;5055092;28;20506;-86
2020/12/20 07:33:39;;;;;;;11.25;3.72;;;9.60;93.70;;;;;;5052501;28;20457;-87
2020/12/20 07:36:05;;;;;;;14.63;3.10;;;9.50;93.80;;;;;;5021749;28;20027;-87
2020/12/20 07:38:34;;;;;;;11.30;3.42;;;9.60;93.70;;;;;;5042273;28;20033;-86
2020/12/20 07:41:02;;;;;;;14.45;3.63;;;9.50;93.80;;;;;;5054534;28;20046;-88
2020/12/20 07:43:27;;;;;;;13.93;3.40;;;9.60;93.80;;;;;;5054447;28;20035;-87
2020/12/20 07:46:01;;;;;;;10.30;3.00;;;9.60;93.70;;;;;;5055330;28;20044;-87
2020/12/20 07:48:27;;;;;;;15.35;3.67;;;9.60;93.70;;;;;;5055847;28;20484;-87
2020/12/20 07:51:25;;;;;;;14.70;3.88;;;9.50;93.70;;;;;;5056533;28;20040;-87
2020/12/20 07:53:54;;;;;;;11.32;4.18;;;9.50;93.70;;;;;;5019303;28;20109;-87
2020/12/20 07:56:24;;;;;;;18.95;3.90;;;9.60;93.70;;;;;;5029276;28;20444;-87
2020/12/20 07:58:52;;;;;;;11.80;3.58;;;9.50;93.70;;;;;;5039995;28;20124;-86
2020/12/20 08:01:19;;;;;;;12.88;3.30;;;9.50;93.70;;;;;;5055558;28;20028;-88
2020/12/20 08:03:45;;;;;;;14.32;3.53;;;9.50;93.80;;;;;;5055482;28;20025;-87
2020/12/20 08:06:12;;;;;;;10.82;3.42;;;9.60;93.80;;;;;;5055331;28;20028;-87
2020/12/20 08:08:39;;;;;;;14.48;3.92;;;9.50;93.80;;;;;;5022744;28;20030;-88
2020/12/20 08:11:27;;;;;;;19.05;3.60;;;9.50;93.80;;;;;;5055399;28;20025;-87
2020/12/20 08:13:55;;;;;;;12.68;3.90;;;9.60;93.80;;;;;;5039535;28;20380;-87
2020/12/20 08:16:26;;;;;;;11.88;2.63;;;9.60;93.80;;;;;;5052213;28;20477;-87
2020/12/20 08:19:21;;;;;;;13.20;3.60;;;9.60;93.80;;;;;;5051905;28;20028;-87
2020/12/20 08:22:15;;;;;;;13.45;3.08;;;9.60;93.70;;;;;;5051589;28;20040;-87
2020/12/20 08:24:42;;;;;;;11.02;3.08;;;9.70;93.70;;;;;;5054871;28;20083;-87
2020/12/20 08:27:27;;;;;;;12.50;3.50;;;9.60;93.70;;;;;;5037853;28;20029;-87
2020/12/20 08:29:58;;;;;;;11.40;3.42;;;9.70;94.00;;;;;;5055110;28;20083;-87
2020/12/20 08:32:34;;;;;;;18.48;4.63;;;9.60;93.70;;;;;;5054745;28;20060;-87
2020/12/20 08:35:09;;;;;;;17.48;3.85;;;9.60;93.80;;;;;;5072238;28;20515;-87
2020/12/20 08:37:59;;;;;;;16.13;4.00;;;9.60;93.80;;;;;;5072075;28;20025;-88
2020/12/20 08:40:31;;;;;;;19.75;3.97;;;9.60;93.80;;;;;;5073147;28;20367;-87
2020/12/20 08:43:05;;;;;;;12.52;3.70;;;9.60;93.90;;;;;;5038516;28;20036;-86
2020/12/20 08:45:31;;;;;;;13.25;3.95;;;9.60;93.80;;;;;;5045215;28;20052;-86
2020/12/20 08:48:02;;;;;;;18.25;4.40;;;9.60;93.80;;;;;;5081088;28;20354;-88
2020/12/20 08:50:31;;;;;;;17.77;3.80;;;9.70;93.80;;;;;;5055927;28;20021;-87
2020/12/20 08:53:05;;;;;;;14.55;3.15;;;9.70;93.80;;;;;;5072243;28;20020;-89
2020/12/20 08:55:33;;;;;;;13.20;3.00;;;9.70;93.80;;;;;;5041164;28;20127;-87
2020/12/20 08:58:11;;;;;;;13.25;3.85;;;9.70;93.80;;;;;;5041296;28;20025;-88
2020/12/20 09:00:40;;;;;;;12.30;3.28;;;9.70;93.70;;;;;;5058812;28;20028;-87
2020/12/20 09:03:09;;;;;;;12.10;3.33;;;9.80;93.60;;;;;;5057431;28;20107;-86
2020/12/20 09:05:35;;;;;;;11.13;3.70;;;9.80;93.60;;;;;;5057625;28;20046;-88
2020/12/20 09:08:04;;;;;;;13.30;2.97;;;9.80;93.60;;;;;;5075932;28;20532;-87
2020/12/20 09:10:32;;;;;;;12.85;3.30;;;9.80;93.60;;;;;;5051552;28;20020;-83
2020/12/20 09:13:06;;;;;;;9.85;2.88;;;9.80;93.50;;;;;;5068105;28;20031;-87
2020/12/20 09:15:39;;;;;;;13.40;3.38;;;9.90;93.50;;;;;;5067495;28;20025;-87
2020/12/20 09:18:20;;;;;;;17.77;3.28;;;9.90;93.50;;;;;;5043039;28;20029;-87
2020/12/20 09:20:46;;;;;;;10.38;3.47;;;9.90;93.50;;;;;;5076539;28;20017;-87
2020/12/20 09:23:22;;;;;;;12.95;3.95;;;9.90;93.40;;;;;;5058456;28;20017;-86
2020/12/20 09:26:06;;;;;;;20.20;4.28;;;10.00;93.40;;;;;;5051905;28;20049;-86
2020/12/20 09:28:33;;;;;;;15.88;3.90;;;10.00;93.30;;;;;;5037782;28;20066;-87
2020/12/20 09:31:00;;;;;;;15.50;3.42;;;10.00;93.40;;;;;;5024339;28;20033;-86
2020/12/20 09:33:38;;;;;;;12.73;3.50;;;10.00;93.30;;;;;;5029087;28;20187;-86
2020/12/20 09:36:06;;;;;;;13.85;4.30;;;9.90;93.30;;;;;;5039830;28;20033;-86
2020/12/20 09:38:40;;;;;;;14.38;3.40;;;9.90;93.40;;;;;;5045811;28;20017;-87
2020/12/20 09:41:15;;;;;;;12.10;3.72;;;10.00;93.30;;;;;;5038606;28;20475;-86
2020/12/20 09:43:42;;;;;;;15.70;3.22;;;10.00;93.40;;;;;;5052697;28;20104;-87
2020/12/20 09:46:09;;;;;;;13.45;3.50;;;10.00;93.30;;;;;;5053883;28;20040;-87
2020/12/20 09:48:35;;;;;;;16.42;4.75;;;10.00;93.30;;;;;;5035341;28;20024;-87
2020/12/20 09:51:01;;;;;;;13.50;3.38;;;10.00;93.20;;;;;;5034612;28;20351;-87
2020/12/20 09:53:26;;;;;;;15.95;3.63;;;10.00;93.20;;;;;;5039722;28;20029;-89
2020/12/20 09:55:52;;;;;;;16.15;3.78;;;10.10;93.20;;;;;;5022798;28;20087;-89
2020/12/20 09:58:18;;;;;;;13.50;3.53;;;10.10;93.20;;;;;;5026068;28;20044;-87
2020/12/20 10:00:45;;;;;;;13.25;3.03;;;10.10;93.20;;;;;;5054786;28;20108;-83
2020/12/20 10:03:11;;;;;;;15.27;3.30;;;10.10;93.10;;;;;;5037816;28;20035;-86
2020/12/20 10:05:39;;;;;;;14.43;3.72;;;10.10;93.10;;;;;;5050601;28;20028;-87
2020/12/20 10:08:06;;;;;;;11.13;3.17;;;10.20;93.10;;;;;;5054934;28;20381;-87
2020/12/20 10:10:32;;;;;;;11.60;3.03;;;10.20;93.10;;;;;;5007984;28;20051;-91
2020/12/20 10:12:57;;;;;;;15.23;3.13;;;10.20;93.10;;;;;;5023592;28;20033;-87
2020/12/20 10:15:24;;;;;;;11.55;3.50;;;10.20;93.10;;;;;;5039668;28;20435;-86
2020/12/20 10:17:51;;;;;;;12.65;3.35;;;10.20;93.10;;;;;;5023500;28;20067;-88
2020/12/20 10:20:17;;;;;;;9.80;2.63;;;10.20;93.10;;;;;;5040482;28;20017;-87
2020/12/20 10:22:42;;;;;;;13.75;3.35;;;10.20;93.10;;;;;;5023571;28;20029;-88
2020/12/20 10:25:08;;;;;;;12.57;3.10;;;10.30;93.00;;;;;;5024093;28;20083;-87
2020/12/20 10:27:34;;;;;;;11.07;3.20;;;10.30;92.90;;;;;;5051026;28;20496;-87
2020/12/20 10:29:59;;;;;;;18.15;3.08;;;10.30;93.00;;;;;;5036023;28;20478;-88
2020/12/20 10:32:25;;;;;;;16.80;3.33;;;10.30;93.00;;;;;;5052456;28;20040;-88
2020/12/20 10:34:51;;;;;;;14.10;3.50;;;10.30;92.90;;;;;;5052178;28;20032;-88
2020/12/20 10:37:17;;;;;;;19.17;3.97;;;10.30;92.90;;;;;;5018988;28;20464;-88
2020/12/20 10:39:42;;;;;;;16.00;3.65;;;10.30;92.90;;;;;;5035646;28;20032;-88
2020/12/20 10:42:17;;;;;;;17.58;3.72;;;10.30;92.80;;;;;;5052584;28;20037;-87
2020/12/20 10:44:49;;;;;;;17.20;4.00;;;10.30;92.80;;;;;;5039010;28;20029;-87
2020/12/20 10:47:14;;;;;;;23.55;4.40;;;10.30;92.80;;;;;;5020577;28;20029;-89
2020/12/20 10:49:40;;;;;;;17.48;3.70;;;10.40;92.70;;;;;;5037156;28;20563;-90
2020/12/20 10:52:06;;;;;;;17.63;3.25;;;10.40;92.70;;;;;;5056609;28;20029;-90
2020/12/20 10:54:32;;;;;;;16.50;3.88;;;10.40;92.60;;;;;;5059140;28;20029;-86
2020/12/20 10:56:58;;;;;;;11.85;2.80;;;10.40;92.70;;;;;;5042988;28;20024;-92
2020/12/20 10:59:30;;;;;;;15.07;3.03;;;10.40;92.70;;;;;;5054370;28;20039;-91
2020/12/20 11:01:55;;;;;;;;;;;10.50;92.60;;;;;;5038813;28;20067;-91
2020/12/20 11:04:22;;;;;;;12.73;3.08;;;10.50;92.50;;;;;;5053948;28;19913;-89
2020/12/20 11:06:48;;;;;;;13.80;3.25;;;10.50;92.40;;;;;;5052630;28;20029;-88
2020/12/20 11:09:14;;;;;;;15.68;4.85;;;10.50;92.40;;;;;;5052290;28;20054;-89
2020/12/20 11:11:42;;;;;;;15.43;3.15;;;10.60;92.30;;;;;;5017581;28;20030;-92
2020/12/20 11:14:10;;;;;;;13.50;3.65;;;10.60;92.30;;;;;;5027173;28;20033;-89
2020/12/20 11:16:36;;;;;;;13.23;3.50;;;10.60;92.30;;;;;;5052639;28;20056;-90
2020/12/20 11:19:02;;;;;;;18.85;3.47;;;10.60;92.10;;;;;;5053255;28;20063;-89
2020/12/20 11:21:31;;;;;;;13.75;3.38;;;10.60;92.10;;;;;;5056532;28;20481;-93
2020/12/20 11:23:59;;;;;;;17.08;3.30;;;10.70;92.10;;;;;;5068389;28;20032;-90
2020/12/20 11:26:27;;;;;;;14.20;3.75;;;10.70;92.00;;;;;;5052739;28;20048;-89
2020/12/20 11:28:56;;;;;;;14.88;3.65;;;10.80;92.00;;;;;;5041105;28;20175;-89
2020/12/20 11:31:27;;;;;;;14.45;3.85;;;10.80;91.80;;;;;;5039915;28;20028;-90
2020/12/20 11:33:55;;;;;;;11.15;3.42;;;10.80;91.70;;;;;;5055646;28;20028;-92
2020/12/20 11:36:23;;;;;;;12.55;3.38;;;10.90;91.80;;;;;;5055547;28;20020;-89
2020/12/20 11:38:55;;;;;;;20.63;3.83;;;10.90;91.80;;;;;;5055552;28;20043;-88
2020/12/20 11:41:28;;;;;;;14.27;3.17;;;10.90;91.60;;;;;;5039892;28;20094;-88
2020/12/20 11:44:09;;;;;;;12.52;3.40;;;10.90;91.50;;;;;;5055106;28;20457;-88
2020/12/20 11:46:35;;;;;;;11.27;3.45;;;10.80;91.40;;;;;;5073520;28;20126;-88
2020/12/20 11:49:05;;;;;;;15.82;4.30;;;10.90;91.60;;;;;;5056244;28;20427;-90
2020/12/20 11:51:34;;;;;;;15.85;4.18;;;10.90;91.50;;;;;;5055411;28;20100;-88
2020/12/20 11:54:00;;;;;;;13.98;3.75;;;11.00;91.70;;;;;;5072896;28;20067;-89
2020/12/20 11:56:31;;;;;;;21.13;4.82;;;11.10;91.60;;;;;;5054727;28;20044;-87
2020/12/20 11:58:57;;;;;;;15.25;3.63;;;11.10;91.20;;;;;;5054012;28;20032;-87
2020/12/20 12:01:27;;;;;;;13.57;3.47;;;11.20;91.30;;;;;;5054136;28;20494;-86
2020/12/20 12:03:56;;;;;;;13.10;4.32;;;11.30;91.10;;;;;;5038204;28;20037;-88
2020/12/20 12:06:21;;;;;;;15.73;4.53;;;11.30;90.90;;;;;;5054345;28;20427;-88
2020/12/20 12:08:50;;;;;;;16.27;3.63;;;11.40;90.50;;;;;;5054148;28;20090;-86
2020/12/20 12:11:25;;;;;;;16.65;4.07;;;11.40;90.60;;;;;;5055194;28;20115;-87
2020/12/20 12:13:56;;;;;;;17.17;3.70;;;11.40;90.70;;;;;;5054844;28;20021;-88
2020/12/20 12:16:24;;;;;;;12.07;4.00;;;11.50;90.60;;;;;;5055399;28;20021;-87
2020/12/20 12:18:57;;;;;;;18.80;4.55;;;11.50;90.60;;;;;;5055110;28;20059;-87
2020/12/20 12:21:26;;;;;;;20.42;4.07;;;11.60;90.50;;;;;;5055772;28;20017;-87
2020/12/20 12:23:58;;;;;;;16.00;4.38;;;11.60;90.10;;;;;;5044467;28;20029;-87
2020/12/20 12:26:43;;;;;;;21.27;4.97;;;11.60;90.00;;;;;;5052959;28;20061;-86
2020/12/20 12:29:09;;;;;;;19.40;4.32;;;11.60;90.10;;;;;;5037823;28;20034;-86
2020/12/20 12:31:36;;;;;;;16.58;5.20;;;11.60;90.10;;;;;;5045526;28;20785;-87
2020/12/20 12:34:02;;;;;;;17.92;3.83;;;11.60;90.00;;;;;;5051974;28;20536;-87
2020/12/20 12:36:30;;;;;;;21.98;5.15;;;11.60;90.00;;;;;;5054625;28;20112;-86
2020/12/20 12:39:17;;;;;;;18.40;4.95;;;11.60;90.10;;;;;;5033682;28;20029;-87
2020/12/20 12:41:42;;;;;;;12.15;3.75;;;11.60;90.00;;;;;;5047475;28;20415;-87
2020/12/20 12:44:07;;;;;;;16.77;5.43;;;11.60;90.10;;;;;;5045802;28;20043;-87
2020/12/20 12:46:46;;;;;;;;;;;;;;;;;;;;;
2020/12/20 12:49:12;;;;;;;11.35;4.03;;;11.70;90.10;;;;;;5055634;28;20020;-87
2020/12/20 12:51:45;;;;;;;19.35;4.78;;;11.80;90.10;;;;;;5054913;28;20100;-85
2020/12/20 12:54:11;;;;;;;24.48;6.07;;;11.80;89.70;;;;;;5033225;28;20507;-85
2020/12/20 12:56:36;;;;;;;17.58;5.55;;;11.80;89.20;;;;;;5038897;28;20021;-84